Startpagina
METAR-TAF:

METAR-TAF

Vliegvelden :

Vliegbasis Leeuwarden

Leeuwarden, Nederland

breedte: 53-13N, lengte: 005-46E, hoogte: 1 m

Actueel weer

Dit bericht is 31 minuten geleden gemaakt, om 23:31 UTC
Wind 10 kt uit het zuidwesten, variërend tussen het zuidzuidwesten en het westen
Temperatuur 8°C
Vochtigheid 100%
Druk 1033 hPa
Zicht: 4700 m
Gebroken wolken op 300 ft
Geheel bewolkt op 400 ft
nevel

METAR: EHLW 202331Z AUTO 23010KT 200V260 4700 BR BKN003 OVC004 08/08 Q1033 YLO

Tijdstip: 01:02 (00:02 UTC)

Verwachting

Dit bericht is 2 uur en het 4 minuten geleden gemaakt, om 21:58 UTC
Verwachting geldig van 20 om 22 UTC tot 21 om 10 UTC
Wind 10 kt uit het zuidwesten
Zicht: 2500 m
Gebroken wolken op 200 ft
nevel
Wijzigt naar
van 21 om 07 UTC tot 21 om 09 UTC
Zicht: 6000 m
Verspreide wolken op 700 ft
Gebroken wolken op 1200 ft

TAF: EHLW 202158Z 2022/2110 23010KT 2500 BR BKN002 BECMG 2107/2109 6000 SCT007 BKN012

Waarnemingen en weersverwachtingen van meer dan 4000 vliegvelden (METAR en TAF).

De beschikbare stations zijn de gele en rode punten op de kaart.

Ga met uw muis naar het station om de naam te zien.

Klik dan om waarnemingen en weersverwachtingen te zien.

kaart wijzigen: klik op de groene knoppen met een zwart kruis om in te zoomen, op de groene knop met een streepje om uit te zoomen of op de groene pijlen voor aangrenzende kaarten.


METAR-TAF: